createdAt,value
2023-03-19T00:00:36.454Z,2.37
2023-03-19T00:03:39.226Z,2.62
2023-03-19T00:06:42.190Z,2.79
2023-03-19T00:09:48.405Z,2.57
2023-03-19T00:12:51.702Z,2.40
2023-03-19T00:15:54.427Z,2.27
2023-03-19T00:18:57.561Z,2.35
2023-03-19T00:22:00.670Z,2.59
2023-03-19T00:25:04.016Z,2.61
2023-03-19T00:28:06.764Z,2.57
2023-03-19T00:31:15.029Z,2.46
2023-03-19T00:34:20.795Z,2.45
2023-03-19T00:37:25.155Z,2.50
2023-03-19T00:40:27.997Z,2.54
2023-03-19T00:43:30.994Z,2.20
2023-03-19T00:46:33.836Z,1.97
2023-03-19T00:49:36.975Z,1.68
2023-03-19T00:52:40.006Z,1.51
2023-03-19T00:55:43.499Z,1.52
2023-03-19T00:58:47.051Z,1.52
2023-03-19T01:01:49.931Z,1.63
2023-03-19T01:04:53.081Z,1.71
2023-03-19T01:07:55.816Z,1.74
2023-03-19T01:11:14.392Z,1.82
2023-03-19T01:14:18.010Z,1.83
2023-03-19T01:17:23.371Z,1.76
2023-03-19T01:20:27.314Z,1.71
2023-03-19T01:23:31.744Z,1.63
2023-03-19T01:26:34.674Z,1.27
2023-03-19T01:29:54.281Z,1.16
2023-03-19T01:33:16.070Z,1.01
2023-03-19T01:36:36.904Z,1.16
2023-03-19T01:39:41.883Z,1.38
2023-03-19T01:43:12.731Z,1.29
2023-03-19T01:46:33.329Z,1.28
2023-03-19T01:49:56.742Z,1.32
2023-03-19T01:53:00.259Z,1.25
2023-03-19T01:56:14.849Z,1.24
2023-03-19T01:59:33.990Z,1.20
2023-03-19T02:03:07.624Z,1.28
2023-03-19T02:06:12.358Z,1.27
2023-03-19T02:09:15.786Z,1.34
2023-03-19T02:12:18.568Z,1.18
2023-03-19T02:15:21.468Z,0.90
2023-03-19T02:18:25.837Z,0.98
2023-03-19T02:21:29.445Z,1.15
2023-03-19T02:24:50.443Z,1.04
2023-03-19T02:27:55.441Z,0.71
2023-03-19T02:30:58.353Z,0.68
2023-03-19T02:34:24.307Z,0.82
2023-03-19T02:37:33.391Z,0.84
2023-03-19T02:40:41.680Z,0.94
2023-03-19T02:43:45.045Z,1.02
2023-03-19T02:46:47.822Z,0.98
2023-03-19T02:49:51.246Z,0.95
2023-03-19T02:52:54.187Z,0.91
2023-03-19T02:55:57.765Z,0.92
2023-03-19T02:59:00.678Z,0.89
2023-03-19T03:02:03.487Z,0.94
2023-03-19T03:05:07.073Z,0.98
2023-03-19T03:08:10.801Z,0.95
2023-03-19T03:11:13.669Z,0.89
2023-03-19T03:14:16.359Z,0.84
2023-03-19T03:17:19.373Z,0.77
2023-03-19T03:20:22.543Z,0.90
2023-03-19T03:23:25.461Z,0.93
2023-03-19T03:26:28.227Z,0.94
2023-03-19T03:29:31.498Z,0.95
2023-03-19T03:32:35.742Z,0.94
2023-03-19T03:35:39.193Z,0.86
2023-03-19T03:38:42.089Z,0.47
2023-03-19T03:41:45.937Z,0.35
2023-03-19T03:44:49.096Z,0.45
2023-03-19T03:47:52.545Z,0.42
2023-03-19T03:50:55.287Z,0.42
2023-03-19T03:54:02.047Z,0.35
2023-03-19T03:57:05.265Z,0.35
2023-03-19T04:00:09.086Z,0.26
2023-03-19T04:03:19.933Z,0.21
2023-03-19T04:06:24.506Z,0.22
2023-03-19T04:09:51.090Z,0.36
2023-03-19T04:12:53.892Z,0.40
2023-03-19T04:15:56.774Z,0.34
2023-03-19T04:19:00.071Z,0.19
2023-03-19T04:22:03.704Z,0.22
2023-03-19T04:25:08.952Z,0.33
2023-03-19T04:28:13.000Z,0.18
2023-03-19T04:31:16.692Z,0.08
2023-03-19T04:34:21.073Z,0.14
2023-03-19T04:37:23.969Z,0.13
2023-03-19T04:40:28.073Z,-0.03
2023-03-19T04:43:31.253Z,-0.02
2023-03-19T04:46:34.096Z,-0.01
2023-03-19T04:49:38.328Z,-0.09
2023-03-19T04:52:41.136Z,-0.01
2023-03-19T04:55:44.164Z,0.11
2023-03-19T04:58:52.601Z,0.00
2023-03-19T05:01:55.809Z,-0.08
2023-03-19T05:04:59.995Z,0.06
2023-03-19T05:08:03.586Z,0.18
2023-03-19T05:11:06.390Z,0.35
2023-03-19T05:14:22.805Z,0.46
2023-03-19T05:17:36.062Z,0.49
2023-03-19T05:20:51.991Z,0.45
2023-03-19T05:23:57.914Z,0.43
2023-03-19T05:27:01.662Z,0.32
2023-03-19T05:30:13.634Z,0.31
2023-03-19T05:33:16.497Z,0.40
2023-03-19T05:36:21.297Z,0.61
2023-03-19T05:39:32.280Z,0.76
2023-03-19T05:42:39.407Z,0.78
2023-03-19T05:45:43.713Z,0.87
2023-03-19T05:48:55.156Z,1.08
2023-03-19T05:51:58.496Z,1.26
2023-03-19T05:55:01.592Z,1.43
2023-03-19T05:58:18.505Z,1.57
2023-03-19T06:01:23.194Z,1.53
2023-03-19T06:04:26.765Z,1.58
2023-03-19T06:07:29.945Z,1.68
2023-03-19T06:10:36.585Z,1.98
2023-03-19T06:13:44.237Z,2.08
2023-03-19T06:16:51.604Z,2.13
2023-03-19T06:19:55.255Z,2.34
2023-03-19T06:22:58.085Z,2.50
2023-03-19T06:26:00.905Z,2.68
2023-03-19T06:29:09.147Z,2.76
2023-03-19T06:32:13.720Z,2.88
2023-03-19T06:35:18.761Z,2.98
2023-03-19T06:38:24.083Z,3.19
2023-03-19T06:41:26.836Z,3.36
2023-03-19T06:44:36.097Z,3.57
2023-03-19T06:47:41.650Z,3.76
2023-03-19T06:50:46.569Z,3.90
2023-03-19T06:53:49.321Z,4.04
2023-03-19T06:56:52.089Z,4.16
2023-03-19T06:59:54.785Z,4.34
2023-03-19T07:02:57.605Z,4.40
2023-03-19T07:06:00.648Z,4.36
2023-03-19T07:09:04.425Z,4.57
2023-03-19T07:12:07.492Z,4.77
2023-03-19T07:15:11.103Z,5.04
2023-03-19T07:18:13.853Z,5.09
2023-03-19T07:21:16.933Z,5.34
2023-03-19T07:24:19.661Z,5.48
2023-03-19T07:27:22.642Z,5.74
2023-03-19T07:30:25.649Z,5.98
2023-03-19T07:33:28.414Z,6.18
2023-03-19T07:36:31.802Z,6.34
2023-03-19T07:39:34.544Z,6.56
2023-03-19T07:42:37.326Z,6.79
2023-03-19T07:45:40.208Z,6.91
2023-03-19T07:48:43.006Z,7.04
2023-03-19T07:51:46.644Z,7.18
2023-03-19T07:54:50.767Z,7.39
2023-03-19T07:57:53.553Z,7.65
2023-03-19T08:00:56.411Z,7.75
2023-03-19T08:03:59.246Z,7.75
2023-03-19T08:07:02.007Z,7.73
2023-03-19T08:10:05.916Z,7.72
2023-03-19T08:13:08.850Z,7.84
2023-03-19T08:16:11.823Z,8.03
2023-03-19T08:19:15.659Z,8.31
2023-03-19T08:22:18.483Z,8.30
2023-03-19T08:25:21.629Z,8.53
2023-03-19T08:28:24.549Z,8.61
2023-03-19T08:31:27.371Z,8.75
2023-03-19T08:34:30.306Z,8.58
2023-03-19T08:37:33.240Z,8.90
2023-03-19T08:40:36.610Z,9.11
2023-03-19T08:43:39.752Z,9.31
2023-03-19T08:46:42.844Z,9.46
2023-03-19T08:49:45.877Z,9.70
2023-03-19T08:52:48.795Z,9.88
2023-03-19T08:55:53.792Z,10.06
2023-03-19T08:58:57.390Z,10.12
2023-03-19T09:02:00.618Z,10.22
2023-03-19T09:05:03.542Z,10.18
2023-03-19T09:08:07.108Z,10.22
2023-03-19T09:11:11.066Z,10.40
2023-03-19T09:14:16.677Z,10.74
2023-03-19T09:17:19.469Z,11.05
2023-03-19T09:20:22.283Z,11.35
2023-03-19T09:23:25.121Z,11.59
2023-03-19T09:26:28.136Z,11.60
2023-03-19T09:29:31.200Z,11.99
2023-03-19T09:32:34.006Z,12.23
2023-03-19T09:35:39.850Z,12.69
2023-03-19T09:38:42.770Z,12.27
2023-03-19T09:42:00.981Z,11.84
2023-03-19T09:45:04.758Z,11.87
2023-03-19T09:48:18.268Z,12.29
2023-03-19T09:51:50.465Z,12.46
2023-03-19T09:54:58.508Z,12.57
2023-03-19T09:58:02.332Z,12.55
2023-03-19T10:01:05.339Z,12.84
2023-03-19T10:04:45.845Z,13.05
2023-03-19T10:07:56.005Z,12.87
2023-03-19T10:11:07.652Z,13.05
2023-03-19T10:14:29.726Z,13.21
2023-03-19T10:17:36.581Z,12.83
2023-03-19T10:20:58.020Z,12.81
2023-03-19T10:24:05.450Z,13.16
2023-03-19T10:27:17.451Z,13.25
2023-03-19T10:30:21.296Z,13.59
2023-03-19T10:33:29.044Z,13.44
2023-03-19T10:36:36.155Z,13.17
2023-03-19T10:39:41.222Z,13.56
2023-03-19T10:42:52.639Z,13.75
2023-03-19T10:45:57.576Z,13.73
2023-03-19T10:49:00.342Z,13.27
2023-03-19T10:52:03.732Z,13.48
2023-03-19T10:55:18.007Z,13.70
2023-03-19T10:58:25.364Z,13.98
2023-03-19T11:01:33.169Z,14.60
2023-03-19T11:04:36.110Z,13.94
2023-03-19T11:07:39.152Z,14.30
2023-03-19T11:10:49.856Z,14.11
2023-03-19T11:13:53.300Z,13.90
2023-03-19T11:16:56.524Z,14.16
2023-03-19T11:19:59.812Z,14.37
2023-03-19T11:23:07.922Z,14.60
2023-03-19T11:26:19.653Z,14.66
2023-03-19T11:29:26.778Z,14.82
2023-03-19T11:32:54.117Z,14.51
2023-03-19T11:36:11.232Z,15.10
2023-03-19T11:39:35.844Z,14.91
2023-03-19T11:43:21.383Z,15.15
2023-03-19T11:46:48.322Z,15.23
2023-03-19T11:49:51.495Z,15.26
2023-03-19T11:52:59.910Z,15.22
2023-03-19T11:56:15.452Z,14.62
2023-03-19T11:59:25.833Z,14.81
2023-03-19T12:03:15.248Z,15.04
2023-03-19T12:06:55.832Z,15.15
2023-03-19T12:10:28.977Z,14.77
2023-03-19T12:14:01.221Z,15.08
2023-03-19T12:17:26.533Z,14.91
2023-03-19T12:20:49.271Z,15.13
2023-03-19T12:24:16.650Z,15.74
2023-03-19T12:27:51.798Z,16.04
2023-03-19T12:31:25.486Z,16.30
2023-03-19T12:34:34.432Z,16.21
2023-03-19T12:37:54.964Z,16.41
2023-03-19T12:41:03.814Z,16.51
2023-03-19T12:44:13.954Z,16.41
2023-03-19T12:47:23.600Z,16.29
2023-03-19T12:50:30.582Z,16.25
2023-03-19T12:54:14.891Z,16.34
2023-03-19T12:57:42.099Z,16.26
2023-03-19T13:01:02.308Z,16.19
2023-03-19T13:04:26.633Z,15.94
2023-03-19T13:07:36.604Z,16.00
2023-03-19T13:10:39.971Z,15.98
2023-03-19T13:13:51.289Z,16.20
2023-03-19T13:17:31.453Z,16.08
2023-03-19T13:20:34.339Z,16.04
2023-03-19T13:23:40.019Z,16.05
2023-03-19T13:26:44.039Z,16.20
2023-03-19T13:30:01.509Z,16.18
2023-03-19T13:33:07.013Z,16.09
2023-03-19T13:36:15.240Z,16.05
2023-03-19T13:39:21.755Z,16.24
2023-03-19T13:42:43.150Z,16.33
2023-03-19T13:45:45.977Z,16.23
2023-03-19T13:48:53.722Z,16.37
2023-03-19T13:52:11.902Z,16.41
2023-03-19T13:55:31.279Z,16.52
2023-03-19T13:58:49.976Z,16.58
2023-03-19T14:01:52.814Z,16.87
2023-03-19T14:05:17.128Z,16.77
2023-03-19T14:08:26.690Z,16.89
2023-03-19T14:11:33.634Z,16.72
2023-03-19T14:14:56.911Z,16.78
2023-03-19T14:18:06.276Z,16.97
2023-03-19T14:21:15.629Z,16.85
2023-03-19T14:28:09.938Z,17.16
2023-03-19T14:31:27.042Z,17.20
2023-03-19T14:34:36.875Z,16.96
2023-03-19T14:37:49.625Z,16.89
2023-03-19T14:40:53.115Z,16.91
2023-03-19T14:44:36.192Z,16.86
2023-03-19T14:47:44.682Z,16.40
2023-03-19T14:51:13.532Z,16.21
2023-03-19T14:54:28.480Z,16.17
2023-03-19T14:57:35.606Z,16.14
2023-03-19T15:00:46.063Z,15.98
2023-03-19T15:03:59.166Z,16.00
2023-03-19T15:07:02.167Z,15.98
2023-03-19T15:10:08.095Z,15.88
2023-03-19T15:13:35.896Z,15.89
2023-03-19T15:16:44.536Z,15.86
2023-03-19T15:19:47.708Z,15.99
2023-03-19T15:23:00.030Z,15.93
2023-03-19T15:26:04.500Z,15.87
2023-03-19T15:29:12.065Z,15.81
2023-03-19T15:32:54.244Z,15.83
2023-03-19T15:36:04.821Z,15.78
2023-03-19T15:39:11.968Z,15.62
2023-03-19T15:42:17.447Z,15.54
2023-03-19T15:45:24.516Z,15.48
2023-03-19T15:48:54.422Z,15.36
2023-03-19T15:52:02.948Z,15.45
2023-03-19T15:55:08.455Z,15.33
2023-03-19T15:58:18.717Z,15.33
2023-03-19T16:01:22.098Z,15.27
2023-03-19T16:04:29.734Z,15.23
2023-03-19T16:07:32.995Z,14.95
2023-03-19T16:10:40.439Z,14.88
2023-03-19T16:13:57.171Z,14.84
2023-03-19T16:17:03.930Z,14.73
2023-03-19T16:20:13.877Z,14.62
2023-03-19T16:23:18.995Z,14.43
2023-03-19T16:26:25.119Z,14.37
2023-03-19T16:29:32.071Z,14.19
2023-03-19T16:32:37.292Z,14.04
2023-03-19T16:35:41.517Z,13.97
2023-03-19T16:38:53.578Z,13.94
2023-03-19T16:42:51.018Z,13.82
2023-03-19T16:46:06.386Z,13.73
2023-03-19T16:49:09.514Z,13.64
2023-03-19T16:52:20.298Z,13.61
2023-03-19T16:55:32.446Z,13.52
2023-03-19T16:58:43.331Z,13.52
2023-03-19T17:01:46.694Z,13.40
2023-03-19T17:04:49.714Z,13.38
2023-03-19T17:07:55.674Z,13.27
2023-03-19T17:10:58.941Z,13.23
2023-03-19T17:14:03.465Z,13.20
2023-03-19T17:17:18.396Z,13.22
2023-03-19T17:20:37.053Z,13.14
2023-03-19T17:23:40.262Z,13.12
2023-03-19T17:26:43.387Z,13.10
2023-03-19T17:29:46.509Z,13.16
2023-03-19T17:32:51.169Z,13.17
2023-03-19T17:35:56.482Z,13.13
2023-03-19T17:38:59.872Z,13.10
2023-03-19T17:42:02.950Z,13.06
2023-03-19T17:45:06.895Z,13.05
2023-03-19T17:48:18.394Z,13.03
2023-03-19T17:51:23.883Z,13.04
2023-03-19T17:54:27.425Z,12.99
2023-03-19T17:57:30.550Z,12.96
2023-03-19T18:00:34.246Z,12.96
2023-03-19T18:03:37.557Z,12.96
2023-03-19T18:06:45.802Z,12.92
2023-03-19T18:09:48.818Z,12.89
2023-03-19T18:12:52.279Z,12.86
2023-03-19T18:15:55.736Z,12.87
2023-03-19T18:19:02.066Z,12.80
2023-03-19T18:22:17.091Z,12.66
2023-03-19T18:25:26.274Z,12.53
2023-03-19T18:28:29.439Z,12.45
2023-03-19T18:31:32.610Z,12.34
2023-03-19T18:34:35.812Z,12.25
2023-03-19T18:37:38.889Z,12.18
2023-03-19T18:40:42.216Z,12.18
2023-03-19T18:43:47.174Z,12.19
2023-03-19T18:46:50.643Z,12.22
2023-03-19T18:49:57.707Z,12.14
2023-03-19T18:53:00.988Z,12.00
2023-03-19T18:56:07.977Z,11.83
2023-03-19T18:59:16.418Z,11.72
2023-03-19T19:02:32.466Z,11.66
2023-03-19T19:05:36.392Z,11.56
2023-03-19T19:08:39.579Z,11.53
2023-03-19T19:11:47.541Z,11.52
2023-03-19T19:14:50.886Z,11.48
2023-03-19T19:17:53.749Z,11.39
2023-03-19T19:20:58.562Z,11.34
2023-03-19T19:24:02.851Z,11.39
2023-03-19T19:27:06.011Z,11.33
2023-03-19T19:30:15.761Z,11.32
2023-03-19T19:33:20.525Z,11.27
2023-03-19T19:36:25.563Z,11.27
2023-03-19T19:39:28.489Z,11.27
2023-03-19T19:42:32.182Z,11.22
2023-03-19T19:45:38.247Z,11.18
2023-03-19T19:48:43.188Z,11.13
2023-03-19T19:51:46.455Z,11.20
2023-03-19T19:54:52.045Z,11.20
2023-03-19T19:57:57.175Z,11.23
2023-03-19T20:01:04.127Z,11.23
2023-03-19T20:04:13.967Z,11.26
2023-03-19T20:07:17.188Z,11.27
2023-03-19T20:10:21.717Z,11.31
2023-03-19T20:13:49.459Z,11.34
2023-03-19T20:16:52.538Z,11.37
2023-03-19T20:19:55.868Z,11.36
2023-03-19T20:23:00.004Z,11.36
2023-03-19T20:26:02.976Z,11.38
2023-03-19T20:29:05.946Z,11.41
2023-03-19T20:32:38.944Z,11.41
2023-03-19T20:35:42.139Z,11.46
2023-03-19T20:38:46.861Z,11.57
2023-03-19T20:41:51.688Z,11.56
2023-03-19T20:44:58.575Z,11.57
2023-03-19T20:48:02.422Z,11.55
2023-03-19T20:51:05.304Z,11.57
2023-03-19T20:54:08.412Z,11.59
2023-03-19T20:57:16.915Z,11.55
2023-03-19T21:00:28.434Z,11.57
2023-03-19T21:03:32.853Z,11.56
2023-03-19T21:06:50.148Z,11.55
2023-03-19T21:09:57.926Z,11.56
2023-03-19T21:13:02.414Z,11.64
2023-03-19T21:16:07.150Z,11.73
2023-03-19T21:19:10.510Z,11.74
2023-03-19T21:22:21.112Z,11.72
2023-03-19T21:25:29.504Z,11.69
2023-03-19T21:28:38.437Z,11.71
2023-03-19T21:31:42.769Z,11.71
2023-03-19T21:34:48.970Z,11.72
2023-03-19T21:37:52.885Z,11.71
2023-03-19T21:40:59.078Z,11.65
2023-03-19T21:44:07.448Z,11.69
2023-03-19T21:47:15.199Z,11.65
2023-03-19T21:50:20.651Z,11.59
2023-03-19T21:53:24.445Z,11.55
2023-03-19T21:56:33.607Z,11.63
2023-03-19T21:59:36.356Z,11.56
2023-03-19T22:02:44.612Z,11.62
2023-03-19T22:05:49.985Z,11.76
2023-03-19T22:09:06.798Z,12.02
2023-03-19T22:12:27.585Z,12.24
2023-03-19T22:15:37.660Z,12.28
2023-03-19T22:18:41.550Z,12.27
2023-03-19T22:21:44.301Z,12.25
2023-03-19T22:24:47.054Z,12.06
2023-03-19T22:27:51.299Z,11.95
2023-03-19T22:30:54.109Z,11.83
2023-03-19T22:33:57.116Z,11.73
2023-03-19T22:36:59.940Z,11.66
2023-03-19T22:40:02.620Z,11.67
2023-03-19T22:43:32.078Z,11.76
2023-03-19T22:46:35.533Z,11.76
2023-03-19T22:49:38.622Z,11.79
2023-03-19T22:52:42.302Z,11.83
2023-03-19T22:55:45.043Z,11.82
2023-03-19T22:58:48.838Z,11.87
2023-03-19T23:01:51.761Z,11.85
2023-03-19T23:04:54.525Z,11.95
2023-03-19T23:07:57.421Z,11.95
2023-03-19T23:11:00.190Z,11.94
2023-03-19T23:14:03.649Z,11.89
2023-03-19T23:17:19.866Z,11.83
2023-03-19T23:20:24.939Z,11.77
2023-03-19T23:23:28.983Z,11.74
2023-03-19T23:26:34.714Z,11.78
2023-03-19T23:29:43.852Z,11.79
2023-03-19T23:32:47.708Z,11.87
2023-03-19T23:35:50.530Z,11.90
2023-03-19T23:38:53.815Z,11.79
2023-03-19T23:41:58.968Z,11.65
2023-03-19T23:45:04.017Z,11.68
2023-03-19T23:48:18.625Z,11.72
2023-03-19T23:51:21.807Z,11.68
2023-03-19T23:54:29.128Z,11.73
2023-03-19T23:57:31.900Z,11.80
